sensor_id;sensor_type;location;lat;lon;timestamp;P1;durP1;ratioP1;P2;durP2;ratioP2
76761;SDS011;65705;51.032;13.790;2023-08-24T00:01:40;5.57;;;2.72;;
76761;SDS011;65705;51.032;13.790;2023-08-24T00:04:06;6.70;;;2.95;;
76761;SDS011;65705;51.032;13.790;2023-08-24T00:06:33;5.93;;;3.47;;
76761;SDS011;65705;51.032;13.790;2023-08-24T00:08:58;5.50;;;2.75;;
76761;SDS011;65705;51.032;13.790;2023-08-24T00:11:25;6.57;;;2.72;;
76761;SDS011;65705;51.032;13.790;2023-08-24T00:13:50;6.45;;;2.90;;
76761;SDS011;65705;51.032;13.790;2023-08-24T00:16:16;8.48;;;3.10;;
76761;SDS011;65705;51.032;13.790;2023-08-24T00:18:43;5.78;;;2.83;;
76761;SDS011;65705;51.032;13.790;2023-08-24T00:21:10;7.65;;;3.22;;
76761;SDS011;65705;51.032;13.790;2023-08-24T00:23:36;8.32;;;3.47;;
76761;SDS011;65705;51.032;13.790;2023-08-24T00:26:02;6.75;;;3.28;;
76761;SDS011;65705;51.032;13.790;2023-08-24T00:28:28;7.85;;;3.17;;
76761;SDS011;65705;51.032;13.790;2023-08-24T00:30:53;8.30;;;3.30;;
76761;SDS011;65705;51.032;13.790;2023-08-24T00:33:19;6.32;;;3.00;;
76761;SDS011;65705;51.032;13.790;2023-08-24T00:35:45;8.48;;;3.05;;
76761;SDS011;65705;51.032;13.790;2023-08-24T00:38:10;8.27;;;3.08;;
76761;SDS011;65705;51.032;13.790;2023-08-24T00:40:36;5.35;;;3.15;;
76761;SDS011;65705;51.032;13.790;2023-08-24T00:43:04;10.32;;;3.35;;
76761;SDS011;65705;51.032;13.790;2023-08-24T00:45:30;5.78;;;3.10;;
76761;SDS011;65705;51.032;13.790;2023-08-24T00:47:58;6.03;;;3.20;;
76761;SDS011;65705;51.032;13.790;2023-08-24T00:50:24;5.00;;;2.90;;
76761;SDS011;65705;51.032;13.790;2023-08-24T00:52:50;5.80;;;3.25;;
76761;SDS011;65705;51.032;13.790;2023-08-24T00:55:18;8.32;;;2.90;;
76761;SDS011;65705;51.032;13.790;2023-08-24T00:57:45;4.40;;;3.10;;
76761;SDS011;65705;51.032;13.790;2023-08-24T01:00:12;5.60;;;3.13;;
76761;SDS011;65705;51.032;13.790;2023-08-24T01:02:39;6.55;;;3.42;;
76761;SDS011;65705;51.032;13.790;2023-08-24T01:05:05;5.55;;;3.22;;
76761;SDS011;65705;51.032;13.790;2023-08-24T01:07:32;6.78;;;3.38;;
76761;SDS011;65705;51.032;13.790;2023-08-24T01:10:00;5.45;;;3.15;;
76761;SDS011;65705;51.032;13.790;2023-08-24T01:17:42;5.72;;;3.20;;
76761;SDS011;65705;51.032;13.790;2023-08-24T01:20:09;10.55;;;3.22;;
76761;SDS011;65705;51.032;13.790;2023-08-24T01:22:54;7.30;;;2.90;;
76761;SDS011;65705;51.032;13.790;2023-08-24T01:25:32;6.90;;;2.90;;
76761;SDS011;65705;51.032;13.790;2023-08-24T01:28:04;8.02;;;3.00;;
76761;SDS011;65705;51.032;13.790;2023-08-24T01:30:33;5.57;;;3.15;;
76761;SDS011;65705;51.032;13.790;2023-08-24T01:33:02;4.75;;;3.20;;
76761;SDS011;65705;51.032;13.790;2023-08-24T01:35:30;5.43;;;3.15;;
76761;SDS011;65705;51.032;13.790;2023-08-24T01:37:58;7.55;;;2.85;;
76761;SDS011;65705;51.032;13.790;2023-08-24T01:40:34;6.53;;;3.13;;
76761;SDS011;65705;51.032;13.790;2023-08-24T01:43:11;6.55;;;2.90;;
76761;SDS011;65705;51.032;13.790;2023-08-24T01:45:39;6.25;;;3.20;;
76761;SDS011;65705;51.032;13.790;2023-08-24T01:48:07;3.97;;;2.70;;
76761;SDS011;65705;51.032;13.790;2023-08-24T01:50:35;5.45;;;2.97;;
76761;SDS011;65705;51.032;13.790;2023-08-24T01:53:01;5.78;;;3.15;;
76761;SDS011;65705;51.032;13.790;2023-08-24T01:55:27;6.53;;;3.30;;
76761;SDS011;65705;51.032;13.790;2023-08-24T01:57:54;6.82;;;3.67;;
76761;SDS011;65705;51.032;13.790;2023-08-24T02:00:20;8.38;;;3.83;;
76761;SDS011;65705;51.032;13.790;2023-08-24T02:02:46;7.07;;;3.17;;
76761;SDS011;65705;51.032;13.790;2023-08-24T02:05:12;7.40;;;3.33;;
76761;SDS011;65705;51.032;13.790;2023-08-24T02:07:38;7.00;;;3.45;;
76761;SDS011;65705;51.032;13.790;2023-08-24T02:10:05;4.32;;;3.00;;
76761;SDS011;65705;51.032;13.790;2023-08-24T02:12:31;7.38;;;3.35;;
76761;SDS011;65705;51.032;13.790;2023-08-24T02:14:57;7.60;;;3.42;;
76761;SDS011;65705;51.032;13.790;2023-08-24T02:17:23;8.20;;;3.33;;
76761;SDS011;65705;51.032;13.790;2023-08-24T02:19:49;4.88;;;3.35;;
76761;SDS011;65705;51.032;13.790;2023-08-24T02:22:15;5.55;;;3.40;;
76761;SDS011;65705;51.032;13.790;2023-08-24T02:24:41;5.90;;;3.92;;
76761;SDS011;65705;51.032;13.790;2023-08-24T02:27:07;8.02;;;3.75;;
76761;SDS011;65705;51.032;13.790;2023-08-24T02:29:32;7.40;;;3.28;;
76761;SDS011;65705;51.032;13.790;2023-08-24T02:31:58;5.28;;;3.20;;
76761;SDS011;65705;51.032;13.790;2023-08-24T02:34:24;8.38;;;4.05;;
76761;SDS011;65705;51.032;13.790;2023-08-24T02:36:50;6.97;;;4.05;;
76761;SDS011;65705;51.032;13.790;2023-08-24T02:39:18;4.40;;;2.85;;
76761;SDS011;65705;51.032;13.790;2023-08-24T02:41:43;6.25;;;3.50;;
76761;SDS011;65705;51.032;13.790;2023-08-24T02:44:09;5.18;;;3.33;;
76761;SDS011;65705;51.032;13.790;2023-08-24T02:46:36;10.45;;;3.60;;
76761;SDS011;65705;51.032;13.790;2023-08-24T02:49:02;11.32;;;4.03;;
76761;SDS011;65705;51.032;13.790;2023-08-24T02:51:28;6.10;;;3.92;;
76761;SDS011;65705;51.032;13.790;2023-08-24T02:53:55;8.25;;;3.92;;
76761;SDS011;65705;51.032;13.790;2023-08-24T02:56:20;6.75;;;4.00;;
76761;SDS011;65705;51.032;13.790;2023-08-24T02:58:46;6.70;;;3.22;;
76761;SDS011;65705;51.032;13.790;2023-08-24T03:01:12;6.18;;;3.60;;
76761;SDS011;65705;51.032;13.790;2023-08-24T03:03:38;5.53;;;3.50;;
76761;SDS011;65705;51.032;13.790;2023-08-24T03:06:04;4.93;;;3.10;;
76761;SDS011;65705;51.032;13.790;2023-08-24T03:08:33;5.88;;;3.22;;
76761;SDS011;65705;51.032;13.790;2023-08-24T03:11:00;5.45;;;3.60;;
76761;SDS011;65705;51.032;13.790;2023-08-24T03:13:27;10.07;;;3.42;;
76761;SDS011;65705;51.032;13.790;2023-08-24T03:15:55;5.90;;;3.65;;
76761;SDS011;65705;51.032;13.790;2023-08-24T03:18:24;7.10;;;3.38;;
76761;SDS011;65705;51.032;13.790;2023-08-24T03:20:50;4.32;;;3.17;;
76761;SDS011;65705;51.032;13.790;2023-08-24T03:23:16;6.65;;;3.60;;
76761;SDS011;65705;51.032;13.790;2023-08-24T03:25:42;8.23;;;3.15;;
76761;SDS011;65705;51.032;13.790;2023-08-24T03:28:08;6.07;;;3.88;;
76761;SDS011;65705;51.032;13.790;2023-08-24T03:30:35;6.05;;;3.70;;
76761;SDS011;65705;51.032;13.790;2023-08-24T03:33:02;8.43;;;3.58;;
76761;SDS011;65705;51.032;13.790;2023-08-24T03:35:29;6.72;;;3.70;;
76761;SDS011;65705;51.032;13.790;2023-08-24T03:37:56;7.38;;;3.72;;
76761;SDS011;65705;51.032;13.790;2023-08-24T03:40:23;7.03;;;3.80;;
76761;SDS011;65705;51.032;13.790;2023-08-24T03:42:49;6.47;;;3.63;;
76761;SDS011;65705;51.032;13.790;2023-08-24T03:45:15;5.85;;;3.50;;
76761;SDS011;65705;51.032;13.790;2023-08-24T03:47:41;6.15;;;3.15;;
76761;SDS011;65705;51.032;13.790;2023-08-24T03:50:07;5.13;;;3.33;;
76761;SDS011;65705;51.032;13.790;2023-08-24T03:52:34;7.00;;;3.72;;
76761;SDS011;65705;51.032;13.790;2023-08-24T03:54:59;7.68;;;4.00;;
76761;SDS011;65705;51.032;13.790;2023-08-24T03:57:25;5.60;;;3.05;;
76761;SDS011;65705;51.032;13.790;2023-08-24T03:59:51;7.65;;;4.47;;
76761;SDS011;65705;51.032;13.790;2023-08-24T04:02:17;9.25;;;4.10;;
76761;SDS011;65705;51.032;13.790;2023-08-24T04:04:43;5.78;;;3.33;;
76761;SDS011;65705;51.032;13.790;2023-08-24T04:07:09;5.03;;;3.33;;
76761;SDS011;65705;51.032;13.790;2023-08-24T04:09:34;6.65;;;3.45;;
76761;SDS011;65705;51.032;13.790;2023-08-24T04:12:00;7.57;;;3.83;;
76761;SDS011;65705;51.032;13.790;2023-08-24T04:14:26;9.60;;;4.03;;
76761;SDS011;65705;51.032;13.790;2023-08-24T04:16:51;8.20;;;3.83;;
76761;SDS011;65705;51.032;13.790;2023-08-24T04:19:17;6.47;;;3.85;;
76761;SDS011;65705;51.032;13.790;2023-08-24T04:21:43;6.53;;;3.20;;
76761;SDS011;65705;51.032;13.790;2023-08-24T04:24:09;6.95;;;3.70;;
76761;SDS011;65705;51.032;13.790;2023-08-24T04:26:34;6.15;;;3.83;;
76761;SDS011;65705;51.032;13.790;2023-08-24T04:29:00;7.78;;;3.67;;
76761;SDS011;65705;51.032;13.790;2023-08-24T04:31:26;6.60;;;3.97;;
76761;SDS011;65705;51.032;13.790;2023-08-24T04:33:52;7.07;;;3.83;;
76761;SDS011;65705;51.032;13.790;2023-08-24T04:36:17;7.05;;;4.10;;
76761;SDS011;65705;51.032;13.790;2023-08-24T04:38:43;6.57;;;3.35;;
76761;SDS011;65705;51.032;13.790;2023-08-24T04:41:09;5.55;;;3.50;;
76761;SDS011;65705;51.032;13.790;2023-08-24T04:43:35;11.82;;;4.30;;
76761;SDS011;65705;51.032;13.790;2023-08-24T04:46:02;8.98;;;4.18;;
76761;SDS011;65705;51.032;13.790;2023-08-24T04:48:27;6.78;;;4.18;;
76761;SDS011;65705;51.032;13.790;2023-08-24T04:50:58;11.07;;;3.40;;
76761;SDS011;65705;51.032;13.790;2023-08-24T04:53:24;6.00;;;3.80;;
76761;SDS011;65705;51.032;13.790;2023-08-24T04:55:51;6.60;;;3.85;;
76761;SDS011;65705;51.032;13.790;2023-08-24T04:58:16;11.82;;;3.70;;
76761;SDS011;65705;51.032;13.790;2023-08-24T05:00:42;10.48;;;4.28;;
76761;SDS011;65705;51.032;13.790;2023-08-24T05:03:08;9.55;;;4.13;;
76761;SDS011;65705;51.032;13.790;2023-08-24T05:05:35;6.00;;;3.75;;
76761;SDS011;65705;51.032;13.790;2023-08-24T05:08:01;12.57;;;3.92;;
76761;SDS011;65705;51.032;13.790;2023-08-24T05:10:34;8.27;;;4.07;;
76761;SDS011;65705;51.032;13.790;2023-08-24T05:13:00;10.75;;;3.22;;
76761;SDS011;65705;51.032;13.790;2023-08-24T05:15:26;9.30;;;3.75;;
76761;SDS011;65705;51.032;13.790;2023-08-24T05:17:52;5.88;;;3.53;;
76761;SDS011;65705;51.032;13.790;2023-08-24T05:20:20;6.88;;;3.92;;
76761;SDS011;65705;51.032;13.790;2023-08-24T05:22:47;6.30;;;3.85;;
76761;SDS011;65705;51.032;13.790;2023-08-24T05:25:13;8.00;;;3.65;;
76761;SDS011;65705;51.032;13.790;2023-08-24T05:27:39;7.80;;;3.58;;
76761;SDS011;65705;51.032;13.790;2023-08-24T05:30:05;6.05;;;3.60;;
76761;SDS011;65705;51.032;13.790;2023-08-24T05:32:32;10.70;;;3.50;;
76761;SDS011;65705;51.032;13.790;2023-08-24T05:34:57;8.18;;;3.72;;
76761;SDS011;65705;51.032;13.790;2023-08-24T05:37:23;5.88;;;3.15;;
76761;SDS011;65705;51.032;13.790;2023-08-24T05:39:49;8.48;;;3.90;;
76761;SDS011;65705;51.032;13.790;2023-08-24T05:42:15;8.40;;;3.03;;
76761;SDS011;65705;51.032;13.790;2023-08-24T05:44:41;8.35;;;3.60;;
76761;SDS011;65705;51.032;13.790;2023-08-24T05:47:07;7.55;;;3.42;;
76761;SDS011;65705;51.032;13.790;2023-08-24T05:49:32;11.40;;;3.55;;
76761;SDS011;65705;51.032;13.790;2023-08-24T05:51:58;5.65;;;3.40;;
76761;SDS011;65705;51.032;13.790;2023-08-24T05:54:24;6.95;;;3.53;;
76761;SDS011;65705;51.032;13.790;2023-08-24T05:56:49;8.52;;;3.92;;
76761;SDS011;65705;51.032;13.790;2023-08-24T05:59:15;8.25;;;3.60;;
76761;SDS011;65705;51.032;13.790;2023-08-24T06:01:41;9.30;;;3.42;;
76761;SDS011;65705;51.032;13.790;2023-08-24T06:04:10;8.18;;;3.63;;
76761;SDS011;65705;51.032;13.790;2023-08-24T06:06:37;11.38;;;3.58;;
76761;SDS011;65705;51.032;13.790;2023-08-24T06:09:03;6.93;;;3.28;;
76761;SDS011;65705;51.032;13.790;2023-08-24T06:11:34;6.65;;;3.60;;
76761;SDS011;65705;51.032;13.790;2023-08-24T06:14:01;7.13;;;3.72;;
76761;SDS011;65705;51.032;13.790;2023-08-24T06:16:27;10.30;;;3.50;;
76761;SDS011;65705;51.032;13.790;2023-08-24T06:18:54;6.97;;;2.97;;
76761;SDS011;65705;51.032;13.790;2023-08-24T06:21:19;6.93;;;2.88;;
76761;SDS011;65705;51.032;13.790;2023-08-24T06:23:45;5.97;;;3.20;;
76761;SDS011;65705;51.032;13.790;2023-08-24T06:26:12;14.00;;;4.82;;
76761;SDS011;65705;51.032;13.790;2023-08-24T06:28:39;5.65;;;3.60;;
76761;SDS011;65705;51.032;13.790;2023-08-24T06:31:05;8.18;;;3.40;;
76761;SDS011;65705;51.032;13.790;2023-08-24T06:33:36;8.85;;;3.50;;
76761;SDS011;65705;51.032;13.790;2023-08-24T06:36:03;8.65;;;3.65;;
76761;SDS011;65705;51.032;13.790;2023-08-24T06:38:33;9.82;;;3.53;;
76761;SDS011;65705;51.032;13.790;2023-08-24T06:40:59;8.20;;;3.70;;
76761;SDS011;65705;51.032;13.790;2023-08-24T06:43:25;6.65;;;3.28;;
76761;SDS011;65705;51.032;13.790;2023-08-24T06:45:51;7.28;;;4.15;;
76761;SDS011;65705;51.032;13.790;2023-08-24T06:48:17;5.93;;;3.30;;
76761;SDS011;65705;51.032;13.790;2023-08-24T06:50:43;8.95;;;3.80;;
76761;SDS011;65705;51.032;13.790;2023-08-24T06:53:09;8.05;;;3.90;;
76761;SDS011;65705;51.032;13.790;2023-08-24T06:55:35;6.80;;;3.30;;
76761;SDS011;65705;51.032;13.790;2023-08-24T06:58:01;5.47;;;3.60;;
76761;SDS011;65705;51.032;13.790;2023-08-24T07:00:30;8.35;;;3.42;;
76761;SDS011;65705;51.032;13.790;2023-08-24T07:02:56;14.52;;;3.55;;
76761;SDS011;65705;51.032;13.790;2023-08-24T07:05:25;6.88;;;3.35;;
76761;SDS011;65705;51.032;13.790;2023-08-24T07:07:51;6.82;;;3.05;;
76761;SDS011;65705;51.032;13.790;2023-08-24T07:10:19;6.65;;;3.10;;
76761;SDS011;65705;51.032;13.790;2023-08-24T07:12:45;7.15;;;3.00;;
76761;SDS011;65705;51.032;13.790;2023-08-24T07:15:12;6.53;;;2.83;;
76761;SDS011;65705;51.032;13.790;2023-08-24T07:17:39;9.05;;;2.92;;
76761;SDS011;65705;51.032;13.790;2023-08-24T07:20:05;6.95;;;2.90;;
76761;SDS011;65705;51.032;13.790;2023-08-24T07:22:32;6.75;;;2.70;;
76761;SDS011;65705;51.032;13.790;2023-08-24T07:24:57;8.18;;;3.72;;
76761;SDS011;65705;51.032;13.790;2023-08-24T07:27:23;7.32;;;4.20;;
76761;SDS011;65705;51.032;13.790;2023-08-24T07:29:49;7.47;;;3.65;;
76761;SDS011;65705;51.032;13.790;2023-08-24T07:32:15;10.25;;;3.70;;
76761;SDS011;65705;51.032;13.790;2023-08-24T07:34:41;5.22;;;3.08;;
76761;SDS011;65705;51.032;13.790;2023-08-24T07:37:06;5.28;;;2.72;;
76761;SDS011;65705;51.032;13.790;2023-08-24T07:39:32;10.85;;;3.22;;
76761;SDS011;65705;51.032;13.790;2023-08-24T07:41:59;8.90;;;3.25;;
76761;SDS011;65705;51.032;13.790;2023-08-24T07:44:25;4.75;;;2.30;;
76761;SDS011;65705;51.032;13.790;2023-08-24T07:46:50;10.15;;;2.85;;
76761;SDS011;65705;51.032;13.790;2023-08-24T07:49:16;4.70;;;3.05;;
76761;SDS011;65705;51.032;13.790;2023-08-24T07:51:42;5.72;;;3.00;;
76761;SDS011;65705;51.032;13.790;2023-08-24T07:54:12;6.07;;;2.80;;
76761;SDS011;65705;51.032;13.790;2023-08-24T07:56:38;8.80;;;3.05;;
76761;SDS011;65705;51.032;13.790;2023-08-24T07:59:04;5.82;;;3.05;;
76761;SDS011;65705;51.032;13.790;2023-08-24T08:01:30;4.63;;;2.50;;
76761;SDS011;65705;51.032;13.790;2023-08-24T08:03:56;5.82;;;2.90;;
76761;SDS011;65705;51.032;13.790;2023-08-24T08:06:21;6.60;;;2.75;;
76761;SDS011;65705;51.032;13.790;2023-08-24T08:08:50;7.47;;;3.70;;
76761;SDS011;65705;51.032;13.790;2023-08-24T08:11:16;15.88;;;4.50;;
76761;SDS011;65705;51.032;13.790;2023-08-24T08:13:42;8.13;;;3.50;;
76761;SDS011;65705;51.032;13.790;2023-08-24T08:16:08;5.43;;;2.90;;
76761;SDS011;65705;51.032;13.790;2023-08-24T08:18:36;3.88;;;2.28;;
76761;SDS011;65705;51.032;13.790;2023-08-24T08:21:35;6.03;;;2.35;;
76761;SDS011;65705;51.032;13.790;2023-08-24T08:23:55;4.82;;;2.20;;
76761;SDS011;65705;51.032;13.790;2023-08-24T08:26:21;4.57;;;2.50;;
76761;SDS011;65705;51.032;13.790;2023-08-24T08:28:47;9.50;;;2.60;;
76761;SDS011;65705;51.032;13.790;2023-08-24T08:31:12;6.53;;;2.22;;
76761;SDS011;65705;51.032;13.790;2023-08-24T08:33:38;6.00;;;2.55;;
76761;SDS011;65705;51.032;13.790;2023-08-24T08:36:04;5.55;;;2.55;;
76761;SDS011;65705;51.032;13.790;2023-08-24T08:38:29;4.45;;;2.47;;
76761;SDS011;65705;51.032;13.790;2023-08-24T08:40:55;5.65;;;2.00;;
76761;SDS011;65705;51.032;13.790;2023-08-24T08:43:27;4.07;;;2.10;;
76761;SDS011;65705;51.032;13.790;2023-08-24T08:45:53;6.10;;;2.50;;
76761;SDS011;65705;51.032;13.790;2023-08-24T08:48:21;3.58;;;2.03;;
76761;SDS011;65705;51.032;13.790;2023-08-24T08:50:50;10.80;;;5.18;;
76761;SDS011;65705;51.032;13.790;2023-08-24T08:53:22;9.18;;;4.55;;
76761;SDS011;65705;51.032;13.790;2023-08-24T08:55:50;5.13;;;2.20;;
76761;SDS011;65705;51.032;13.790;2023-08-24T08:58:17;3.33;;;1.80;;
76761;SDS011;65705;51.032;13.790;2023-08-24T09:00:44;4.82;;;2.17;;
76761;SDS011;65705;51.032;13.790;2023-08-24T09:03:11;5.93;;;2.30;;
76761;SDS011;65705;51.032;13.790;2023-08-24T09:05:42;10.55;;;2.40;;
76761;SDS011;65705;51.032;13.790;2023-08-24T09:08:08;5.05;;;2.30;;
76761;SDS011;65705;51.032;13.790;2023-08-24T09:10:34;6.30;;;2.30;;
76761;SDS011;65705;51.032;13.790;2023-08-24T09:13:00;6.05;;;2.08;;
76761;SDS011;65705;51.032;13.790;2023-08-24T09:15:26;6.20;;;2.60;;
76761;SDS011;65705;51.032;13.790;2023-08-24T09:17:53;6.20;;;2.42;;
76761;SDS011;65705;51.032;13.790;2023-08-24T09:20:20;4.85;;;1.92;;
76761;SDS011;65705;51.032;13.790;2023-08-24T09:22:46;5.88;;;2.20;;
76761;SDS011;65705;51.032;13.790;2023-08-24T09:25:11;8.15;;;2.22;;
76761;SDS011;65705;51.032;13.790;2023-08-24T09:27:37;5.50;;;2.22;;
76761;SDS011;65705;51.032;13.790;2023-08-24T09:30:03;5.65;;;2.20;;
76761;SDS011;65705;51.032;13.790;2023-08-24T09:32:31;3.90;;;2.22;;
76761;SDS011;65705;51.032;13.790;2023-08-24T09:35:04;5.40;;;1.80;;
76761;SDS011;65705;51.032;13.790;2023-08-24T09:37:34;4.32;;;1.90;;
76761;SDS011;65705;51.032;13.790;2023-08-24T09:40:01;4.10;;;2.00;;
76761;SDS011;65705;51.032;13.790;2023-08-24T09:42:37;5.05;;;2.22;;
76761;SDS011;65705;51.032;13.790;2023-08-24T09:45:05;3.90;;;1.95;;
76761;SDS011;65705;51.032;13.790;2023-08-24T09:47:33;5.57;;;2.22;;
76761;SDS011;65705;51.032;13.790;2023-08-24T09:49:59;6.00;;;1.70;;
76761;SDS011;65705;51.032;13.790;2023-08-24T09:52:25;4.43;;;1.70;;
76761;SDS011;65705;51.032;13.790;2023-08-24T09:54:56;4.60;;;2.17;;
76761;SDS011;65705;51.032;13.790;2023-08-24T09:57:30;3.80;;;1.83;;
76761;SDS011;65705;51.032;13.790;2023-08-24T10:00:07;4.57;;;2.40;;
76761;SDS011;65705;51.032;13.790;2023-08-24T10:02:49;4.70;;;2.00;;
76761;SDS011;65705;51.032;13.790;2023-08-24T10:05:20;5.85;;;2.40;;
76761;SDS011;65705;51.032;13.790;2023-08-24T10:07:55;6.63;;;2.33;;
76761;SDS011;65705;51.032;13.790;2023-08-24T10:10:23;7.68;;;4.32;;
76761;SDS011;65705;51.032;13.790;2023-08-24T10:12:56;9.00;;;5.30;;
76761;SDS011;65705;51.032;13.790;2023-08-24T10:15:24;6.35;;;2.83;;
76761;SDS011;65705;51.032;13.790;2023-08-24T10:17:51;5.38;;;1.88;;
76761;SDS011;65705;51.032;13.790;2023-08-24T10:20:19;7.05;;;2.60;;
76761;SDS011;65705;51.032;13.790;2023-08-24T10:22:46;4.82;;;2.15;;
76761;SDS011;65705;51.032;13.790;2023-08-24T10:25:14;5.25;;;1.98;;
76761;SDS011;65705;51.032;13.790;2023-08-24T10:27:41;5.85;;;1.95;;
76761;SDS011;65705;51.032;13.790;2023-08-24T10:30:10;4.55;;;2.20;;
76761;SDS011;65705;51.032;13.790;2023-08-24T10:32:38;3.80;;;1.77;;
76761;SDS011;65705;51.032;13.790;2023-08-24T10:35:08;5.22;;;2.20;;
76761;SDS011;65705;51.032;13.790;2023-08-24T10:37:34;5.15;;;2.10;;
76761;SDS011;65705;51.032;13.790;2023-08-24T10:40:00;4.65;;;2.25;;
76761;SDS011;65705;51.032;13.790;2023-08-24T10:42:26;4.68;;;1.92;;
76761;SDS011;65705;51.032;13.790;2023-08-24T10:44:52;6.13;;;2.55;;
76761;SDS011;65705;51.032;13.790;2023-08-24T10:47:19;5.22;;;2.03;;
76761;SDS011;65705;51.032;13.790;2023-08-24T10:54:48;5.53;;;2.40;;
76761;SDS011;65705;51.032;13.790;2023-08-24T10:57:21;11.32;;;4.97;;
76761;SDS011;65705;51.032;13.790;2023-08-24T11:00:01;8.93;;;4.40;;
76761;SDS011;65705;51.032;13.790;2023-08-24T11:07:52;6.82;;;2.30;;
76761;SDS011;65705;51.032;13.790;2023-08-24T11:10:18;4.25;;;2.53;;
76761;SDS011;65705;51.032;13.790;2023-08-24T11:15:30;4.35;;;2.20;;
76761;SDS011;65705;51.032;13.790;2023-08-24T11:18:39;5.85;;;2.15;;
76761;SDS011;65705;51.032;13.790;2023-08-24T11:21:11;7.80;;;2.13;;
76761;SDS011;65705;51.032;13.790;2023-08-24T11:23:37;6.20;;;2.40;;
76761;SDS011;65705;51.032;13.790;2023-08-24T11:26:03;7.57;;;2.33;;
76761;SDS011;65705;51.032;13.790;2023-08-24T11:28:29;4.85;;;2.28;;
76761;SDS011;65705;51.032;13.790;2023-08-24T11:30:56;5.55;;;2.40;;
76761;SDS011;65705;51.032;13.790;2023-08-24T11:33:33;5.63;;;2.17;;
76761;SDS011;65705;51.032;13.790;2023-08-24T11:36:02;3.60;;;1.80;;
76761;SDS011;65705;51.032;13.790;2023-08-24T11:41:10;7.63;;;4.47;;
76761;SDS011;65705;51.032;13.790;2023-08-24T11:43:40;6.18;;;2.65;;
76761;SDS011;65705;51.032;13.790;2023-08-24T11:46:06;4.68;;;2.58;;
76761;SDS011;65705;51.032;13.790;2023-08-24T11:48:32;4.43;;;2.03;;
76761;SDS011;65705;51.032;13.790;2023-08-24T11:50:58;6.95;;;2.70;;
76761;SDS011;65705;51.032;13.790;2023-08-24T11:53:24;7.38;;;2.53;;
76761;SDS011;65705;51.032;13.790;2023-08-24T11:55:53;6.43;;;2.60;;
76761;SDS011;65705;51.032;13.790;2023-08-24T11:58:19;5.72;;;2.05;;
76761;SDS011;65705;51.032;13.790;2023-08-24T12:00:46;5.80;;;2.33;;
76761;SDS011;65705;51.032;13.790;2023-08-24T12:03:12;8.02;;;2.20;;
76761;SDS011;65705;51.032;13.790;2023-08-24T12:05:39;7.55;;;2.30;;
76761;SDS011;65705;51.032;13.790;2023-08-24T12:08:04;4.97;;;2.10;;
76761;SDS011;65705;51.032;13.790;2023-08-24T12:10:30;10.05;;;3.20;;
76761;SDS011;65705;51.032;13.790;2023-08-24T12:13:03;8.65;;;2.13;;
76761;SDS011;65705;51.032;13.790;2023-08-24T12:15:36;7.32;;;2.50;;
76761;SDS011;65705;51.032;13.790;2023-08-24T12:18:12;6.72;;;2.13;;
76761;SDS011;65705;51.032;13.790;2023-08-24T12:20:42;8.38;;;2.35;;
76761;SDS011;65705;51.032;13.790;2023-08-24T12:23:10;7.32;;;1.85;;
76761;SDS011;65705;51.032;13.790;2023-08-24T12:25:36;5.15;;;1.85;;
76761;SDS011;65705;51.032;13.790;2023-08-24T12:28:09;5.07;;;2.10;;
76761;SDS011;65705;51.032;13.790;2023-08-24T12:30:48;4.78;;;2.03;;
76761;SDS011;65705;51.032;13.790;2023-08-24T12:33:27;4.55;;;2.00;;
76761;SDS011;65705;51.032;13.790;2023-08-24T12:35:53;5.82;;;2.92;;
76761;SDS011;65705;51.032;13.790;2023-08-24T12:38:21;6.78;;;2.67;;
76761;SDS011;65705;51.032;13.790;2023-08-24T12:40:47;7.88;;;2.30;;
76761;SDS011;65705;51.032;13.790;2023-08-24T12:43:14;7.70;;;3.10;;
76761;SDS011;65705;51.032;13.790;2023-08-24T12:45:40;5.75;;;2.13;;
76761;SDS011;65705;51.032;13.790;2023-08-24T12:48:06;4.57;;;2.10;;
76761;SDS011;65705;51.032;13.790;2023-08-24T12:50:35;7.45;;;2.17;;
76761;SDS011;65705;51.032;13.790;2023-08-24T12:53:01;6.40;;;1.95;;
76761;SDS011;65705;51.032;13.790;2023-08-24T12:55:28;4.35;;;2.20;;
76761;SDS011;65705;51.032;13.790;2023-08-24T12:57:54;7.82;;;2.38;;
76761;SDS011;65705;51.032;13.790;2023-08-24T13:00:20;3.75;;;2.13;;
76761;SDS011;65705;51.032;13.790;2023-08-24T13:02:48;7.40;;;2.05;;
76761;SDS011;65705;51.032;13.790;2023-08-24T13:05:14;6.68;;;2.38;;
76761;SDS011;65705;51.032;13.790;2023-08-24T13:07:40;5.88;;;2.08;;
76761;SDS011;65705;51.032;13.790;2023-08-24T13:10:06;7.32;;;2.15;;
76761;SDS011;65705;51.032;13.790;2023-08-24T13:12:32;4.95;;;2.30;;
76761;SDS011;65705;51.032;13.790;2023-08-24T13:14:59;7.00;;;2.92;;
76761;SDS011;65705;51.032;13.790;2023-08-24T13:17:25;6.70;;;2.90;;
76761;SDS011;65705;51.032;13.790;2023-08-24T13:19:52;9.43;;;3.38;;
76761;SDS011;65705;51.032;13.790;2023-08-24T13:22:18;7.03;;;3.75;;
76761;SDS011;65705;51.032;13.790;2023-08-24T13:24:43;13.02;;;3.28;;
76761;SDS011;65705;51.032;13.790;2023-08-24T13:27:10;8.07;;;2.17;;
76761;SDS011;65705;51.032;13.790;2023-08-24T13:29:36;4.63;;;2.38;;
76761;SDS011;65705;51.032;13.790;2023-08-24T13:32:02;5.20;;;2.33;;
76761;SDS011;65705;51.032;13.790;2023-08-24T13:34:29;4.10;;;2.42;;
76761;SDS011;65705;51.032;13.790;2023-08-24T13:36:58;4.90;;;2.20;;
76761;SDS011;65705;51.032;13.790;2023-08-24T13:39:27;5.63;;;2.50;;
76761;SDS011;65705;51.032;13.790;2023-08-24T13:41:54;5.43;;;2.72;;
76761;SDS011;65705;51.032;13.790;2023-08-24T13:44:23;4.32;;;2.15;;
76761;SDS011;65705;51.032;13.790;2023-08-24T13:46:49;5.97;;;2.30;;
76761;SDS011;65705;51.032;13.790;2023-08-24T13:49:17;9.82;;;2.38;;
76761;SDS011;65705;51.032;13.790;2023-08-24T13:51:44;7.80;;;3.50;;
76761;SDS011;65705;51.032;13.790;2023-08-24T13:54:14;8.63;;;5.28;;
76761;SDS011;65705;51.032;13.790;2023-08-24T13:56:46;9.27;;;4.95;;
76761;SDS011;65705;51.032;13.790;2023-08-24T13:59:13;7.25;;;2.88;;
76761;SDS011;65705;51.032;13.790;2023-08-24T14:01:40;5.40;;;2.70;;
76761;SDS011;65705;51.032;13.790;2023-08-24T14:04:07;4.22;;;2.28;;
76761;SDS011;65705;51.032;13.790;2023-08-24T14:06:34;8.63;;;2.60;;
76761;SDS011;65705;51.032;13.790;2023-08-24T14:09:02;7.97;;;2.55;;
76761;SDS011;65705;51.032;13.790;2023-08-24T14:11:28;6.40;;;2.60;;
76761;SDS011;65705;51.032;13.790;2023-08-24T14:13:54;10.48;;;3.03;;
76761;SDS011;65705;51.032;13.790;2023-08-24T14:16:20;7.25;;;2.63;;
76761;SDS011;65705;51.032;13.790;2023-08-24T14:18:46;7.63;;;2.85;;
76761;SDS011;65705;51.032;13.790;2023-08-24T14:21:13;7.97;;;2.72;;
76761;SDS011;65705;51.032;13.790;2023-08-24T14:23:40;6.57;;;2.60;;
76761;SDS011;65705;51.032;13.790;2023-08-24T14:26:06;8.45;;;2.92;;
76761;SDS011;65705;51.032;13.790;2023-08-24T14:31:19;21.75;;;4.85;;
76761;SDS011;65705;51.032;13.790;2023-08-24T14:33:48;11.05;;;5.85;;
76761;SDS011;65705;51.032;13.790;2023-08-24T14:36:15;7.80;;;3.20;;
76761;SDS011;65705;51.032;13.790;2023-08-24T14:38:42;7.15;;;2.92;;
76761;SDS011;65705;51.032;13.790;2023-08-24T14:41:10;10.43;;;2.85;;
76761;SDS011;65705;51.032;13.790;2023-08-24T14:43:37;8.27;;;3.03;;
76761;SDS011;65705;51.032;13.790;2023-08-24T14:46:04;4.53;;;2.90;;
76761;SDS011;65705;51.032;13.790;2023-08-24T14:48:30;12.18;;;3.05;;
76761;SDS011;65705;51.032;13.790;2023-08-24T14:50:56;5.95;;;2.95;;
76761;SDS011;65705;51.032;13.790;2023-08-24T14:53:22;11.50;;;2.83;;
76761;SDS011;65705;51.032;13.790;2023-08-24T14:55:48;8.75;;;3.72;;
76761;SDS011;65705;51.032;13.790;2023-08-24T14:58:14;9.50;;;4.20;;